sensor_id;sensor_type;location;lat;lon;timestamp;P1;durP1;ratioP1;P2;durP2;ratioP2
51738;SDS011;37815;52.692;6.226;2023-04-25T00:03:19;6.35;;;1.90;;
51738;SDS011;37815;52.692;6.226;2023-04-25T00:08:21;8.07;;;2.10;;
51738;SDS011;37815;52.692;6.226;2023-04-25T00:13:21;4.93;;;2.40;;
51738;SDS011;37815;52.692;6.226;2023-04-25T00:18:22;6.40;;;1.95;;
51738;SDS011;37815;52.692;6.226;2023-04-25T00:23:22;5.75;;;1.63;;
51738;SDS011;37815;52.692;6.226;2023-04-25T00:28:23;4.68;;;2.10;;
51738;SDS011;37815;52.692;6.226;2023-04-25T00:33:24;6.75;;;2.03;;
51738;SDS011;37815;52.692;6.226;2023-04-25T00:38:25;5.20;;;2.00;;
51738;SDS011;37815;52.692;6.226;2023-04-25T00:43:26;5.10;;;1.90;;
51738;SDS011;37815;52.692;6.226;2023-04-25T00:48:27;4.30;;;1.60;;
51738;SDS011;37815;52.692;6.226;2023-04-25T00:53:28;4.95;;;1.90;;
51738;SDS011;37815;52.692;6.226;2023-04-25T00:58:29;2.88;;;1.52;;
51738;SDS011;37815;52.692;6.226;2023-04-25T01:03:31;7.05;;;1.90;;
51738;SDS011;37815;52.692;6.226;2023-04-25T01:08:36;7.50;;;1.95;;
51738;SDS011;37815;52.692;6.226;2023-04-25T01:13:38;6.13;;;1.90;;
51738;SDS011;37815;52.692;6.226;2023-04-25T01:18:38;3.85;;;1.80;;
51738;SDS011;37815;52.692;6.226;2023-04-25T01:23:41;3.40;;;1.63;;
51738;SDS011;37815;52.692;6.226;2023-04-25T01:28:42;4.03;;;1.70;;
51738;SDS011;37815;52.692;6.226;2023-04-25T01:33:44;4.05;;;1.73;;
51738;SDS011;37815;52.692;6.226;2023-04-25T01:38:45;5.45;;;2.00;;
51738;SDS011;37815;52.692;6.226;2023-04-25T01:43:47;5.68;;;1.75;;
51738;SDS011;37815;52.692;6.226;2023-04-25T01:48:47;4.90;;;1.40;;
51738;SDS011;37815;52.692;6.226;2023-04-25T01:53:48;7.13;;;2.05;;
51738;SDS011;37815;52.692;6.226;2023-04-25T01:58:55;3.78;;;1.60;;
51738;SDS011;37815;52.692;6.226;2023-04-25T02:03:56;6.68;;;1.85;;
51738;SDS011;37815;52.692;6.226;2023-04-25T02:08:56;4.88;;;2.22;;
51738;SDS011;37815;52.692;6.226;2023-04-25T02:13:57;5.40;;;2.15;;
51738;SDS011;37815;52.692;6.226;2023-04-25T02:18:57;4.53;;;1.80;;
51738;SDS011;37815;52.692;6.226;2023-04-25T02:23:59;5.40;;;1.70;;
51738;SDS011;37815;52.692;6.226;2023-04-25T02:28:59;5.05;;;1.75;;
51738;SDS011;37815;52.692;6.226;2023-04-25T02:34:01;8.30;;;1.98;;
51738;SDS011;37815;52.692;6.226;2023-04-25T02:39:01;3.08;;;1.67;;
51738;SDS011;37815;52.692;6.226;2023-04-25T02:44:03;5.20;;;2.13;;
51738;SDS011;37815;52.692;6.226;2023-04-25T02:49:03;5.82;;;1.77;;
51738;SDS011;37815;52.692;6.226;2023-04-25T02:54:05;4.43;;;1.77;;
51738;SDS011;37815;52.692;6.226;2023-04-25T02:59:06;3.40;;;1.50;;
51738;SDS011;37815;52.692;6.226;2023-04-25T03:04:07;4.20;;;1.48;;
51738;SDS011;37815;52.692;6.226;2023-04-25T03:09:07;3.70;;;1.50;;
51738;SDS011;37815;52.692;6.226;2023-04-25T03:14:08;5.63;;;1.50;;
51738;SDS011;37815;52.692;6.226;2023-04-25T03:19:08;4.82;;;1.65;;
51738;SDS011;37815;52.692;6.226;2023-04-25T03:24:09;4.57;;;1.35;;
51738;SDS011;37815;52.692;6.226;2023-04-25T03:29:11;4.20;;;1.70;;
51738;SDS011;37815;52.692;6.226;2023-04-25T03:34:11;2.88;;;1.17;;
51738;SDS011;37815;52.692;6.226;2023-04-25T03:39:14;3.92;;;1.80;;
51738;SDS011;37815;52.692;6.226;2023-04-25T03:44:15;5.38;;;1.70;;
51738;SDS011;37815;52.692;6.226;2023-04-25T03:49:16;4.80;;;1.70;;
51738;SDS011;37815;52.692;6.226;2023-04-25T03:54:16;3.90;;;1.50;;
51738;SDS011;37815;52.692;6.226;2023-04-25T03:59:17;4.80;;;1.63;;
51738;SDS011;37815;52.692;6.226;2023-04-25T04:04:17;3.15;;;1.48;;
51738;SDS011;37815;52.692;6.226;2023-04-25T04:09:18;5.40;;;1.80;;
51738;SDS011;37815;52.692;6.226;2023-04-25T04:14:20;6.18;;;1.73;;
51738;SDS011;37815;52.692;6.226;2023-04-25T04:19:21;3.28;;;1.27;;
51738;SDS011;37815;52.692;6.226;2023-04-25T04:24:21;3.17;;;1.45;;
51738;SDS011;37815;52.692;6.226;2023-04-25T04:29:22;2.75;;;1.30;;
51738;SDS011;37815;52.692;6.226;2023-04-25T04:34:22;1.98;;;1.10;;
51738;SDS011;37815;52.692;6.226;2023-04-25T04:39:24;3.53;;;1.80;;
51738;SDS011;37815;52.692;6.226;2023-04-25T04:44:25;3.22;;;1.33;;
51738;SDS011;37815;52.692;6.226;2023-04-25T04:49:26;4.18;;;1.20;;
51738;SDS011;37815;52.692;6.226;2023-04-25T04:54:27;2.17;;;1.30;;
51738;SDS011;37815;52.692;6.226;2023-04-25T04:59:27;2.05;;;1.25;;
51738;SDS011;37815;52.692;6.226;2023-04-25T05:04:28;2.63;;;1.17;;
51738;SDS011;37815;52.692;6.226;2023-04-25T05:09:28;3.10;;;1.17;;
51738;SDS011;37815;52.692;6.226;2023-04-25T05:14:30;3.65;;;1.10;;
51738;SDS011;37815;52.692;6.226;2023-04-25T05:19:31;4.32;;;1.20;;
51738;SDS011;37815;52.692;6.226;2023-04-25T05:24:32;3.00;;;1.40;;
51738;SDS011;37815;52.692;6.226;2023-04-25T05:29:33;1.83;;;0.93;;
51738;SDS011;37815;52.692;6.226;2023-04-25T05:34:33;3.50;;;1.50;;
51738;SDS011;37815;52.692;6.226;2023-04-25T05:39:34;1.65;;;0.82;;
51738;SDS011;37815;52.692;6.226;2023-04-25T05:44:34;4.15;;;1.45;;
51738;SDS011;37815;52.692;6.226;2023-04-25T05:49:35;4.35;;;0.93;;
51738;SDS011;37815;52.692;6.226;2023-04-25T05:54:35;3.75;;;1.10;;
51738;SDS011;37815;52.692;6.226;2023-04-25T05:59:36;4.60;;;0.98;;
51738;SDS011;37815;52.692;6.226;2023-04-25T06:04:37;4.18;;;0.90;;
51738;SDS011;37815;52.692;6.226;2023-04-25T06:09:37;3.72;;;1.00;;
51738;SDS011;37815;52.692;6.226;2023-04-25T06:14:40;3.67;;;1.38;;
51738;SDS011;37815;52.692;6.226;2023-04-25T06:19:41;4.03;;;1.00;;
51738;SDS011;37815;52.692;6.226;2023-04-25T06:24:41;1.88;;;0.90;;
51738;SDS011;37815;52.692;6.226;2023-04-25T06:29:42;2.78;;;0.85;;
51738;SDS011;37815;52.692;6.226;2023-04-25T06:34:42;2.72;;;0.90;;
51738;SDS011;37815;52.692;6.226;2023-04-25T06:39:43;2.83;;;1.00;;
51738;SDS011;37815;52.692;6.226;2023-04-25T06:44:44;2.97;;;1.08;;
51738;SDS011;37815;52.692;6.226;2023-04-25T06:49:44;5.07;;;1.27;;
51738;SDS011;37815;52.692;6.226;2023-04-25T06:54:45;3.42;;;1.10;;
51738;SDS011;37815;52.692;6.226;2023-04-25T06:59:46;1.58;;;0.80;;
51738;SDS011;37815;52.692;6.226;2023-04-25T07:04:46;1.67;;;1.00;;
51738;SDS011;37815;52.692;6.226;2023-04-25T07:09:47;2.88;;;0.82;;
51738;SDS011;37815;52.692;6.226;2023-04-25T07:14:47;1.80;;;0.70;;
51738;SDS011;37815;52.692;6.226;2023-04-25T07:19:48;1.38;;;0.70;;
51738;SDS011;37815;52.692;6.226;2023-04-25T07:24:48;2.22;;;0.80;;
51738;SDS011;37815;52.692;6.226;2023-04-25T07:29:49;4.88;;;0.80;;
51738;SDS011;37815;52.692;6.226;2023-04-25T07:34:50;2.78;;;0.80;;
51738;SDS011;37815;52.692;6.226;2023-04-25T07:39:51;1.67;;;0.95;;
51738;SDS011;37815;52.692;6.226;2023-04-25T07:44:52;1.67;;;0.90;;
51738;SDS011;37815;52.692;6.226;2023-04-25T07:49:52;3.22;;;0.73;;
51738;SDS011;37815;52.692;6.226;2023-04-25T07:54:53;2.90;;;0.70;;
51738;SDS011;37815;52.692;6.226;2023-04-25T07:59:53;3.20;;;0.88;;
51738;SDS011;37815;52.692;6.226;2023-04-25T08:04:54;3.38;;;1.10;;
51738;SDS011;37815;52.692;6.226;2023-04-25T08:09:55;2.03;;;1.38;;
51738;SDS011;37815;52.692;6.226;2023-04-25T08:14:55;3.45;;;1.27;;
51738;SDS011;37815;52.692;6.226;2023-04-25T08:19:56;1.52;;;0.80;;
51738;SDS011;37815;52.692;6.226;2023-04-25T08:24:57;1.33;;;1.02;;
51738;SDS011;37815;52.692;6.226;2023-04-25T08:29:57;3.72;;;0.73;;
51738;SDS011;37815;52.692;6.226;2023-04-25T08:34:58;2.47;;;0.93;;
51738;SDS011;37815;52.692;6.226;2023-04-25T08:39:59;1.90;;;0.60;;
51738;SDS011;37815;52.692;6.226;2023-04-25T08:45:08;4.03;;;0.85;;
51738;SDS011;37815;52.692;6.226;2023-04-25T08:50:09;2.47;;;0.68;;
51738;SDS011;37815;52.692;6.226;2023-04-25T08:55:10;2.65;;;0.77;;
51738;SDS011;37815;52.692;6.226;2023-04-25T09:00:12;2.30;;;0.95;;
51738;SDS011;37815;52.692;6.226;2023-04-25T09:05:14;2.80;;;0.80;;
51738;SDS011;37815;52.692;6.226;2023-04-25T09:10:14;3.67;;;0.88;;
51738;SDS011;37815;52.692;6.226;2023-04-25T09:15:15;1.35;;;0.70;;
51738;SDS011;37815;52.692;6.226;2023-04-25T09:20:15;2.10;;;0.90;;
51738;SDS011;37815;52.692;6.226;2023-04-25T09:25:16;1.50;;;0.60;;
51738;SDS011;37815;52.692;6.226;2023-04-25T09:30:17;2.00;;;0.73;;
51738;SDS011;37815;52.692;6.226;2023-04-25T09:35:25;2.05;;;1.27;;
51738;SDS011;37815;52.692;6.226;2023-04-25T09:40:26;1.10;;;0.50;;
51738;SDS011;37815;52.692;6.226;2023-04-25T09:45:29;3.85;;;0.70;;
51738;SDS011;37815;52.692;6.226;2023-04-25T09:50:31;2.25;;;0.63;;
51738;SDS011;37815;52.692;6.226;2023-04-25T09:55:31;3.72;;;0.73;;
51738;SDS011;37815;52.692;6.226;2023-04-25T10:00:34;3.22;;;0.73;;
51738;SDS011;37815;52.692;6.226;2023-04-25T10:05:35;3.13;;;0.80;;
51738;SDS011;37815;52.692;6.226;2023-04-25T10:10:37;3.05;;;0.60;;
51738;SDS011;37815;52.692;6.226;2023-04-25T10:15:40;0.85;;;0.60;;
51738;SDS011;37815;52.692;6.226;2023-04-25T10:20:41;2.67;;;0.70;;
51738;SDS011;37815;52.692;6.226;2023-04-25T10:25:42;3.00;;;0.60;;
51738;SDS011;37815;52.692;6.226;2023-04-25T10:31:06;1.60;;;0.80;;
51738;SDS011;37815;52.692;6.226;2023-04-25T10:36:09;4.40;;;0.63;;
51738;SDS011;37815;52.692;6.226;2023-04-25T10:41:14;3.35;;;0.80;;
51738;SDS011;37815;52.692;6.226;2023-04-25T10:46:22;5.75;;;1.00;;
51738;SDS011;37815;52.692;6.226;2023-04-25T10:51:24;1.80;;;0.80;;
51738;SDS011;37815;52.692;6.226;2023-04-25T10:56:40;0.95;;;0.47;;
51738;SDS011;37815;52.692;6.226;2023-04-25T11:01:44;4.07;;;0.75;;
51738;SDS011;37815;52.692;6.226;2023-04-25T11:06:50;1.73;;;0.82;;
51738;SDS011;37815;52.692;6.226;2023-04-25T11:12:10;1.80;;;0.68;;
51738;SDS011;37815;52.692;6.226;2023-04-25T11:17:14;1.50;;;0.52;;
51738;SDS011;37815;52.692;6.226;2023-04-25T11:22:15;1.33;;;0.70;;
51738;SDS011;37815;52.692;6.226;2023-04-25T11:27:16;2.72;;;0.80;;
51738;SDS011;37815;52.692;6.226;2023-04-25T11:32:17;2.40;;;0.60;;
51738;SDS011;37815;52.692;6.226;2023-04-25T11:37:18;2.28;;;0.85;;
51738;SDS011;37815;52.692;6.226;2023-04-25T11:42:18;2.78;;;0.70;;
51738;SDS011;37815;52.692;6.226;2023-04-25T11:47:20;3.70;;;0.90;;
51738;SDS011;37815;52.692;6.226;2023-04-25T11:52:20;14.07;;;1.95;;
51738;SDS011;37815;52.692;6.226;2023-04-25T11:57:21;3.53;;;0.82;;
51738;SDS011;37815;52.692;6.226;2023-04-25T12:02:25;3.03;;;0.80;;
51738;SDS011;37815;52.692;6.226;2023-04-25T12:07:29;7.78;;;1.02;;
51738;SDS011;37815;52.692;6.226;2023-04-25T12:12:33;3.95;;;1.38;;
51738;SDS011;37815;52.692;6.226;2023-04-25T12:17:35;3.53;;;1.10;;
51738;SDS011;37815;52.692;6.226;2023-04-25T12:22:37;2.55;;;0.70;;
51738;SDS011;37815;52.692;6.226;2023-04-25T12:27:40;3.47;;;1.00;;
51738;SDS011;37815;52.692;6.226;2023-04-25T12:32:42;4.10;;;1.23;;
51738;SDS011;37815;52.692;6.226;2023-04-25T12:37:42;2.30;;;0.60;;
51738;SDS011;37815;52.692;6.226;2023-04-25T12:42:43;4.20;;;0.80;;
51738;SDS011;37815;52.692;6.226;2023-04-25T12:47:43;2.15;;;0.73;;
51738;SDS011;37815;52.692;6.226;2023-04-25T12:52:44;1.58;;;0.55;;
51738;SDS011;37815;52.692;6.226;2023-04-25T12:57:45;3.72;;;0.80;;
51738;SDS011;37815;52.692;6.226;2023-04-25T13:02:46;7.60;;;1.33;;
51738;SDS011;37815;52.692;6.226;2023-04-25T13:07:47;4.60;;;1.90;;
51738;SDS011;37815;52.692;6.226;2023-04-25T13:12:47;3.63;;;1.83;;
51738;SDS011;37815;52.692;6.226;2023-04-25T13:17:48;5.68;;;1.67;;
51738;SDS011;37815;52.692;6.226;2023-04-25T13:22:49;5.63;;;1.02;;
51738;SDS011;37815;52.692;6.226;2023-04-25T13:27:49;7.53;;;1.45;;
51738;SDS011;37815;52.692;6.226;2023-04-25T13:32:50;6.22;;;1.50;;
51738;SDS011;37815;52.692;6.226;2023-04-25T13:37:51;6.53;;;1.35;;
51738;SDS011;37815;52.692;6.226;2023-04-25T13:42:52;4.63;;;0.90;;
51738;SDS011;37815;52.692;6.226;2023-04-25T13:47:53;7.82;;;1.27;;
51738;SDS011;37815;52.692;6.226;2023-04-25T13:52:53;2.70;;;1.10;;
51738;SDS011;37815;52.692;6.226;2023-04-25T13:57:54;4.35;;;1.17;;
51738;SDS011;37815;52.692;6.226;2023-04-25T14:02:55;9.55;;;1.40;;
51738;SDS011;37815;52.692;6.226;2023-04-25T14:07:55;3.92;;;1.48;;
51738;SDS011;37815;52.692;6.226;2023-04-25T14:12:56;3.58;;;1.35;;
51738;SDS011;37815;52.692;6.226;2023-04-25T14:17:57;5.50;;;1.30;;
51738;SDS011;37815;52.692;6.226;2023-04-25T14:22:58;4.28;;;1.00;;
51738;SDS011;37815;52.692;6.226;2023-04-25T14:27:59;2.67;;;0.75;;
51738;SDS011;37815;52.692;6.226;2023-04-25T14:33:00;6.13;;;1.08;;
51738;SDS011;37815;52.692;6.226;2023-04-25T14:38:00;2.10;;;0.60;;
51738;SDS011;37815;52.692;6.226;2023-04-25T14:43:01;2.92;;;1.10;;
51738;SDS011;37815;52.692;6.226;2023-04-25T14:48:01;2.97;;;0.80;;
51738;SDS011;37815;52.692;6.226;2023-04-25T14:53:02;4.22;;;1.10;;
51738;SDS011;37815;52.692;6.226;2023-04-25T14:58:03;4.97;;;0.98;;
51738;SDS011;37815;52.692;6.226;2023-04-25T15:03:03;6.45;;;1.25;;
51738;SDS011;37815;52.692;6.226;2023-04-25T15:08:04;8.60;;;1.65;;
51738;SDS011;37815;52.692;6.226;2023-04-25T15:13:05;3.95;;;1.10;;
51738;SDS011;37815;52.692;6.226;2023-04-25T15:18:06;3.30;;;1.17;;
51738;SDS011;37815;52.692;6.226;2023-04-25T15:23:06;8.38;;;1.60;;
51738;SDS011;37815;52.692;6.226;2023-04-25T15:28:07;5.95;;;1.00;;
51738;SDS011;37815;52.692;6.226;2023-04-25T15:33:07;2.40;;;0.93;;
51738;SDS011;37815;52.692;6.226;2023-04-25T15:38:08;5.22;;;1.13;;
51738;SDS011;37815;52.692;6.226;2023-04-25T15:43:10;4.07;;;0.95;;
51738;SDS011;37815;52.692;6.226;2023-04-25T15:48:14;4.38;;;1.20;;
51738;SDS011;37815;52.692;6.226;2023-04-25T15:53:15;3.75;;;1.27;;
51738;SDS011;37815;52.692;6.226;2023-04-25T15:58:16;4.63;;;0.82;;
51738;SDS011;37815;52.692;6.226;2023-04-25T16:03:16;3.53;;;1.05;;
51738;SDS011;37815;52.692;6.226;2023-04-25T16:08:17;4.88;;;0.80;;
51738;SDS011;37815;52.692;6.226;2023-04-25T16:13:17;3.63;;;0.93;;
51738;SDS011;37815;52.692;6.226;2023-04-25T16:18:18;2.70;;;1.00;;
51738;SDS011;37815;52.692;6.226;2023-04-25T16:23:18;2.78;;;1.10;;
51738;SDS011;37815;52.692;6.226;2023-04-25T16:28:19;3.25;;;1.00;;
51738;SDS011;37815;52.692;6.226;2023-04-25T16:33:20;4.72;;;1.00;;
51738;SDS011;37815;52.692;6.226;2023-04-25T16:38:20;3.78;;;0.80;;
51738;SDS011;37815;52.692;6.226;2023-04-25T16:43:21;4.07;;;0.93;;
51738;SDS011;37815;52.692;6.226;2023-04-25T16:48:22;6.82;;;1.27;;
51738;SDS011;37815;52.692;6.226;2023-04-25T16:53:23;6.38;;;1.00;;
51738;SDS011;37815;52.692;6.226;2023-04-25T16:58:24;5.60;;;1.33;;
51738;SDS011;37815;52.692;6.226;2023-04-25T17:03:26;7.80;;;1.13;;
51738;SDS011;37815;52.692;6.226;2023-04-25T17:08:27;6.53;;;1.27;;
51738;SDS011;37815;52.692;6.226;2023-04-25T17:13:28;3.90;;;1.08;;
51738;SDS011;37815;52.692;6.226;2023-04-25T17:18:29;4.05;;;1.23;;
51738;SDS011;37815;52.692;6.226;2023-04-25T17:23:31;4.93;;;0.95;;
51738;SDS011;37815;52.692;6.226;2023-04-25T17:28:31;4.95;;;1.00;;
51738;SDS011;37815;52.692;6.226;2023-04-25T17:33:32;6.07;;;1.08;;
51738;SDS011;37815;52.692;6.226;2023-04-25T17:38:33;4.75;;;1.20;;
51738;SDS011;37815;52.692;6.226;2023-04-25T17:43:35;2.38;;;0.73;;
51738;SDS011;37815;52.692;6.226;2023-04-25T17:48:36;2.53;;;0.90;;
51738;SDS011;37815;52.692;6.226;2023-04-25T17:53:36;2.22;;;1.00;;
51738;SDS011;37815;52.692;6.226;2023-04-25T17:58:37;2.13;;;0.98;;
51738;SDS011;37815;52.692;6.226;2023-04-25T18:03:38;2.08;;;0.93;;
51738;SDS011;37815;52.692;6.226;2023-04-25T18:08:39;4.68;;;0.82;;
51738;SDS011;37815;52.692;6.226;2023-04-25T18:13:40;3.47;;;0.85;;
51738;SDS011;37815;52.692;6.226;2023-04-25T18:18:41;2.97;;;0.95;;
51738;SDS011;37815;52.692;6.226;2023-04-25T18:23:43;1.88;;;1.02;;
51738;SDS011;37815;52.692;6.226;2023-04-25T18:28:44;3.30;;;1.00;;
51738;SDS011;37815;52.692;6.226;2023-04-25T18:33:45;3.22;;;0.80;;
51738;SDS011;37815;52.692;6.226;2023-04-25T18:38:46;6.30;;;1.52;;
51738;SDS011;37815;52.692;6.226;2023-04-25T18:43:50;4.85;;;1.13;;
51738;SDS011;37815;52.692;6.226;2023-04-25T18:48:51;1.75;;;0.85;;
51738;SDS011;37815;52.692;6.226;2023-04-25T18:53:55;2.17;;;0.90;;
51738;SDS011;37815;52.692;6.226;2023-04-25T18:58:56;1.45;;;0.90;;
51738;SDS011;37815;52.692;6.226;2023-04-25T19:03:56;2.97;;;1.00;;
51738;SDS011;37815;52.692;6.226;2023-04-25T19:08:57;2.30;;;0.80;;
51738;SDS011;37815;52.692;6.226;2023-04-25T19:13:57;3.20;;;0.90;;
51738;SDS011;37815;52.692;6.226;2023-04-25T19:19:00;3.03;;;1.00;;
51738;SDS011;37815;52.692;6.226;2023-04-25T19:24:02;3.40;;;1.42;;
51738;SDS011;37815;52.692;6.226;2023-04-25T19:34:09;3.20;;;0.73;;
51738;SDS011;37815;52.692;6.226;2023-04-25T19:39:10;3.42;;;1.10;;
51738;SDS011;37815;52.692;6.226;2023-04-25T19:44:10;2.95;;;1.05;;
51738;SDS011;37815;52.692;6.226;2023-04-25T19:49:11;2.47;;;0.63;;
51738;SDS011;37815;52.692;6.226;2023-04-25T19:54:12;2.25;;;1.23;;
51738;SDS011;37815;52.692;6.226;2023-04-25T19:59:12;2.83;;;1.15;;
51738;SDS011;37815;52.692;6.226;2023-04-25T20:04:13;3.60;;;1.30;;
51738;SDS011;37815;52.692;6.226;2023-04-25T20:09:13;2.95;;;0.95;;
51738;SDS011;37815;52.692;6.226;2023-04-25T20:14:15;4.75;;;1.30;;
51738;SDS011;37815;52.692;6.226;2023-04-25T20:19:15;4.40;;;1.38;;
51738;SDS011;37815;52.692;6.226;2023-04-25T20:24:16;2.60;;;1.27;;
51738;SDS011;37815;52.692;6.226;2023-04-25T20:29:17;4.35;;;1.42;;
51738;SDS011;37815;52.692;6.226;2023-04-25T20:34:17;4.35;;;1.20;;
51738;SDS011;37815;52.692;6.226;2023-04-25T20:39:19;2.83;;;1.10;;
51738;SDS011;37815;52.692;6.226;2023-04-25T20:44:20;3.40;;;1.50;;
51738;SDS011;37815;52.692;6.226;2023-04-25T20:49:22;4.97;;;1.20;;
51738;SDS011;37815;52.692;6.226;2023-04-25T20:54:23;4.03;;;1.33;;
51738;SDS011;37815;52.692;6.226;2023-04-25T20:59:26;2.58;;;1.20;;
51738;SDS011;37815;52.692;6.226;2023-04-25T21:04:29;2.42;;;1.13;;
51738;SDS011;37815;52.692;6.226;2023-04-25T21:09:29;3.97;;;1.52;;
51738;SDS011;37815;52.692;6.226;2023-04-25T21:14:30;1.52;;;1.02;;
51738;SDS011;37815;52.692;6.226;2023-04-25T21:19:30;2.78;;;1.15;;
51738;SDS011;37815;52.692;6.226;2023-04-25T21:24:32;2.78;;;1.27;;
51738;SDS011;37815;52.692;6.226;2023-04-25T21:29:32;4.70;;;1.40;;
51738;SDS011;37815;52.692;6.226;2023-04-25T21:34:33;5.47;;;1.33;;
51738;SDS011;37815;52.692;6.226;2023-04-25T21:39:33;2.13;;;1.08;;
51738;SDS011;37815;52.692;6.226;2023-04-25T21:44:34;3.22;;;1.58;;
51738;SDS011;37815;52.692;6.226;2023-04-25T21:49:35;4.05;;;1.75;;
51738;SDS011;37815;52.692;6.226;2023-04-25T21:54:36;3.50;;;1.33;;
51738;SDS011;37815;52.692;6.226;2023-04-25T21:59:36;3.55;;;1.27;;
51738;SDS011;37815;52.692;6.226;2023-04-25T22:04:37;3.00;;;1.27;;
51738;SDS011;37815;52.692;6.226;2023-04-25T22:09:38;1.80;;;1.02;;
51738;SDS011;37815;52.692;6.226;2023-04-25T22:14:39;3.10;;;1.50;;
51738;SDS011;37815;52.692;6.226;2023-04-25T22:19:40;3.17;;;1.30;;
51738;SDS011;37815;52.692;6.226;2023-04-25T22:24:42;2.90;;;1.40;;
51738;SDS011;37815;52.692;6.226;2023-04-25T22:29:42;3.40;;;1.40;;
51738;SDS011;37815;52.692;6.226;2023-04-25T22:34:43;4.80;;;1.90;;
51738;SDS011;37815;52.692;6.226;2023-04-25T22:39:44;7.13;;;1.88;;
51738;SDS011;37815;52.692;6.226;2023-04-25T22:44:45;2.75;;;1.55;;
51738;SDS011;37815;52.692;6.226;2023-04-25T22:49:46;6.32;;;1.92;;
51738;SDS011;37815;52.692;6.226;2023-04-25T22:54:46;3.45;;;1.80;;
51738;SDS011;37815;52.692;6.226;2023-04-25T22:59:47;3.03;;;1.40;;
51738;SDS011;37815;52.692;6.226;2023-04-25T23:04:47;3.80;;;1.65;;
51738;SDS011;37815;52.692;6.226;2023-04-25T23:09:49;4.22;;;2.10;;
51738;SDS011;37815;52.692;6.226;2023-04-25T23:14:49;2.92;;;1.20;;
51738;SDS011;37815;52.692;6.226;2023-04-25T23:19:50;4.15;;;1.63;;
51738;SDS011;37815;52.692;6.226;2023-04-25T23:24:51;2.38;;;1.58;;
51738;SDS011;37815;52.692;6.226;2023-04-25T23:29:52;2.78;;;1.52;;
51738;SDS011;37815;52.692;6.226;2023-04-25T23:34:53;2.72;;;1.63;;
51738;SDS011;37815;52.692;6.226;2023-04-25T23:39:54;2.15;;;1.23;;
51738;SDS011;37815;52.692;6.226;2023-04-25T23:44:54;3.17;;;1.30;;
51738;SDS011;37815;52.692;6.226;2023-04-25T23:49:55;2.85;;;1.33;;
51738;SDS011;37815;52.692;6.226;2023-04-25T23:54:56;3.50;;;1.30;;
51738;SDS011;37815;52.692;6.226;2023-04-25T23:59:57;2.58;;;1.20;;
